Time;durP1;ratioP1;P1;durP2;ratioP2;P2;SDS_P1;SDS_P2;PMS_P1;PMS_P2;Temp;Humidity;BMP_temperature;BMP_pressure;BME280_temperature;BME280_humidity;BME280_pressure;Samples;Min_cycle;Max_cycle;Signal;HPM_P1;HPM_P2
2022/06/24 00:00:09;;;;;;;9.18;4.28;;;;;;;21.85;72.70;100506.56;4919158;29;20468;-90
2022/06/24 00:02:37;;;;;;;9.45;5.05;;;;;;;21.85;73.77;100549.69;4917535;29;20027;-91
2022/06/24 00:05:07;;;;;;;10.52;5.10;;;;;;;21.66;73.50;100534.03;4916191;29;20068;-92
2022/06/24 00:07:52;;;;;;;11.15;5.28;;;;;;;21.57;74.62;100544.59;4900396;29;20035;-90
2022/06/24 00:10:31;;;;;;;13.43;5.38;;;;;;;21.28;74.66;100493.66;4920033;29;20046;-92
2022/06/24 00:12:57;;;;;;;13.35;5.25;;;;;;;21.28;75.30;100509.81;4904778;29;20087;-93
2022/06/24 00:15:37;;;;;;;14.27;6.43;;;;;;;21.15;75.17;100493.69;4915369;29;20436;-91
2022/06/24 00:18:20;;;;;;;10.88;5.38;;;;;;;21.19;74.91;100505.97;4915176;29;20341;-91
2022/06/24 00:20:50;;;;;;;11.35;5.50;;;;;;;21.23;75.50;100574.78;4915541;29;20342;-90
2022/06/24 00:23:19;;;;;;;14.65;6.47;;;;;;;21.22;75.61;100624.22;4930825;29;20036;-91
2022/06/24 00:25:49;;;;;;;12.30;6.50;;;;;;;21.21;76.47;100662.03;4899395;29;20035;-93
2022/06/24 00:28:16;;;;;;;17.02;8.60;;;;;;;21.18;80.27;100683.78;4912074;29;20491;-89
2022/06/24 00:30:53;;;;;;;23.67;12.80;;;;;;;20.91;83.52;100659.63;4899900;29;20047;-89
2022/06/24 00:33:23;;;;;;;31.02;13.73;;;;;;;20.70;86.38;100643.09;4921810;29;20126;-88
2022/06/24 00:35:56;;;;;;;19.90;12.85;;;;;;;20.45;87.45;100646.50;4914678;29;20293;-92
2022/06/24 00:38:30;;;;;;;19.92;10.80;;;;;;;20.17;86.01;100669.84;4921128;29;20027;-89
2022/06/24 00:41:04;;;;;;;14.73;7.75;;;;;;;19.78;85.92;100717.09;4932407;29;20388;-90
2022/06/24 00:43:33;;;;;;;9.35;4.78;;;;;;;19.49;82.75;100732.31;4938614;29;20035;-86
2022/06/24 00:46:08;;;;;;;9.43;3.20;;;;;;;19.20;83.22;100734.06;4924618;29;20069;-89
2022/06/24 00:48:38;;;;;;;7.82;2.75;;;;;;;18.93;82.47;100733.88;4940287;29;20042;-89
2022/06/24 00:51:04;;;;;;;6.55;2.25;;;;;;;18.63;82.42;100721.25;4939463;29;20099;-90
2022/06/24 00:53:39;;;;;;;5.43;2.10;;;;;;;18.43;83.40;100706.28;4924306;28;20372;-89
2022/06/24 00:56:04;;;;;;;6.07;1.95;;;;;;;18.38;84.16;100705.69;4921153;29;20095;-89
2022/06/24 00:58:33;;;;;;;8.75;2.15;;;;;;;18.25;84.58;100719.78;4904013;29;20031;-90
2022/06/24 01:01:00;;;;;;;6.38;2.20;;;;;;;18.14;85.13;100710.59;4924780;29;20075;-90
2022/06/24 01:03:37;;;;;;;6.20;2.00;;;;;;;18.01;86.07;100703.25;4940291;29;20023;-89
2022/06/24 01:06:03;;;;;;;5.68;1.90;;;;;;;17.90;86.50;100700.25;4908467;29;20130;-89
2022/06/24 01:08:28;;;;;;;5.72;1.70;;;;;;;17.93;87.83;100694.75;4917587;29;20464;-89
2022/06/24 01:10:54;;;;;;;3.53;1.63;;;;;;;17.88;86.84;100678.09;4924139;29;20126;-89
2022/06/24 01:13:19;;;;;;;6.30;1.98;;;;;;;17.89;88.71;100676.25;4908737;29;20031;-88
2022/06/24 01:15:45;;;;;;;4.40;1.77;;;;;;;17.83;87.16;100681.00;4924253;29;20043;-88
2022/06/24 01:18:10;;;;;;;4.00;1.80;;;;;;;17.76;86.79;100671.53;4905401;29;20372;-89
2022/06/24 01:20:36;;;;;;;3.78;1.70;;;;;;;17.75;87.81;100674.28;4918640;29;20031;-89
2022/06/24 01:23:02;;;;;;;5.13;1.80;;;;;;;17.66;87.43;100662.28;4908043;29;20038;-87
2022/06/24 01:25:30;;;;;;;2.60;1.38;;;;;;;17.61;87.36;100654.50;4926824;29;20387;-88
2022/06/24 01:27:55;;;;;;;3.35;1.48;;;;;;;17.55;87.70;100646.78;4924087;29;20031;-88
2022/06/24 01:30:21;;;;;;;4.47;1.50;;;;;;;17.54;87.79;100642.38;4920438;29;20407;-88
2022/06/24 01:32:46;;;;;;;7.35;1.65;;;;;;;17.53;89.16;100632.63;4923796;29;20086;-88
2022/06/24 01:35:13;;;;;;;3.30;1.50;;;;;;;17.51;89.76;100628.31;4923615;28;20067;-88
2022/06/24 01:37:39;;;;;;;3.55;1.70;;;;;;;17.52;88.95;100630.88;4908334;29;20035;-89
2022/06/24 01:40:05;;;;;;;11.35;2.03;;;;;;;17.46;89.14;100628.56;4936981;29;20043;-90
2022/06/24 01:42:31;;;;;;;5.45;1.90;;;;;;;17.50;89.70;100629.25;4920629;29;20024;-89
2022/06/24 01:44:56;;;;;;;5.47;1.95;;;;;;;17.49;90.19;100622.16;4916683;29;20035;-89
2022/06/24 01:47:22;;;;;;;6.15;1.73;;;;;;;17.54;89.65;100622.78;4917570;29;20031;-90
2022/06/24 01:49:47;;;;;;;4.20;1.85;;;;;;;17.56;88.96;100615.53;4897722;28;20035;-90
2022/06/24 01:52:12;;;;;;;3.75;1.98;;;;;;;17.60;88.64;100601.88;4921724;29;20040;-89
2022/06/24 01:54:38;;;;;;;4.55;1.90;;;;;;;17.63;89.50;100587.47;4923508;29;20039;-89
2022/06/24 01:57:04;;;;;;;5.85;2.00;;;;;;;17.69;89.35;100607.69;4923609;29;20479;-89
2022/06/24 01:59:30;;;;;;;6.55;1.95;;;;;;;17.68;87.84;100614.88;4923432;29;20046;-90
2022/06/24 02:01:55;;;;;;;3.38;1.80;;;;;;;17.63;88.29;100598.19;4907665;29;20031;-89
2022/06/24 02:04:21;;;;;;;3.92;1.75;;;;;;;17.66;88.20;100592.66;4920033;29;20031;-90
2022/06/24 02:06:46;;;;;;;3.92;2.00;;;;;;;17.66;88.61;100598.00;4914615;29;20034;-89
2022/06/24 02:09:16;;;;;;;3.30;1.60;;;;;;;17.61;88.01;100581.34;4938843;29;20035;-90
2022/06/24 02:14:27;;;;;;;4.18;1.90;;;;;;;17.58;87.82;100584.16;4935517;29;20539;-90
2022/06/24 02:16:52;;;;;;;4.55;1.88;;;;;;;17.58;89.24;100585.06;4920153;29;20111;-90
2022/06/24 02:19:19;;;;;;;3.97;1.77;;;;;;;17.59;88.74;100577.88;4915692;29;20080;-90
2022/06/24 02:21:44;;;;;;;3.55;1.67;;;;;;;17.65;87.75;100596.25;4919553;29;20078;-90
2022/06/24 02:24:13;;;;;;;3.75;2.15;;;;;;;17.65;90.56;100593.59;4904048;29;20035;-90
2022/06/24 02:26:39;;;;;;;3.78;1.63;;;;;;;17.64;90.23;100586.50;4889266;29;20031;-90
2022/06/24 02:29:04;;;;;;;8.23;2.00;;;;;;;17.65;92.21;100579.34;4906143;29;20057;-90
2022/06/24 02:31:30;;;;;;;7.72;2.03;;;;;;;17.67;90.17;100589.00;4935282;28;20131;-90
2022/06/24 02:33:56;;;;;;;3.50;1.92;;;;;;;17.67;88.94;100590.84;4922842;29;20385;-90
2022/06/24 02:36:22;;;;;;;3.10;1.90;;;;;;;17.63;88.11;100587.47;4921902;29;20138;-91
2022/06/24 02:38:47;;;;;;;2.30;1.80;;;;;;;17.61;89.95;100592.91;4925913;29;20149;-90
2022/06/24 02:41:16;;;;;;;4.15;2.05;;;;;;;17.55;89.54;100587.88;4919561;29;20043;-90
2022/06/24 02:43:41;;;;;;;3.42;1.95;;;;;;;17.64;89.82;100589.19;4918980;29;20027;-90
2022/06/24 02:46:07;;;;;;;5.60;1.95;;;;;;;17.68;90.21;100581.84;4914680;28;20093;-90
2022/06/24 02:48:34;;;;;;;3.88;2.22;;;;;;;17.66;89.57;100581.94;4922175;29;20527;-90
2022/06/24 02:51:06;;;;;;;3.50;2.50;;;;;;;17.67;91.68;100591.69;4918497;29;20135;-91
2022/06/24 02:53:33;;;;;;;5.93;2.15;;;;;;;17.70;92.65;100590.66;4936295;29;20039;-91
2022/06/24 02:56:01;;;;;;;3.92;2.30;;;;;;;17.75;92.77;100591.25;4911124;29;20027;-90
2022/06/24 02:58:26;;;;;;;3.45;2.08;;;;;;;17.80;92.21;100589.22;4919089;29;20031;-90
2022/06/24 03:00:52;;;;;;;4.50;2.00;;;;;;;17.82;93.02;100581.97;4922457;29;20486;-90
2022/06/24 03:03:20;;;;;;;3.17;2.03;;;;;;;17.78;93.52;100567.00;4922715;29;20035;-90
2022/06/24 03:05:46;;;;;;;2.33;1.90;;;;;;;17.81;93.49;100564.19;4938059;29;20030;-89
2022/06/24 03:08:14;;;;;;;4.22;2.13;;;;;;;17.82;93.46;100565.91;4925781;29;20046;-89
2022/06/24 03:10:40;;;;;;;5.30;2.20;;;;;;;17.86;93.50;100561.25;4933792;29;20566;-89
2022/06/24 03:13:07;;;;;;;5.50;2.13;;;;;;;17.86;92.01;100561.25;4911726;28;20133;-89
2022/06/24 03:15:33;;;;;;;3.58;2.20;;;;;;;17.85;92.65;100557.69;4921957;29;20082;-88
2022/06/24 03:17:59;;;;;;;3.63;2.17;;;;;;;17.82;92.52;100548.00;4922383;29;20113;-88
2022/06/24 03:20:25;;;;;;;6.32;2.40;;;;;;;17.84;93.32;100545.25;4922342;29;20058;-88
2022/06/24 03:22:51;;;;;;;6.18;2.40;;;;;;;17.82;93.13;100531.94;4888906;29;20495;-88
2022/06/24 03:25:19;;;;;;;4.20;2.30;;;;;;;17.85;93.70;100530.91;4918933;29;20023;-88
2022/06/24 03:27:44;;;;;;;3.30;2.22;;;;;;;17.86;92.31;100535.31;4915940;29;20028;-88
2022/06/24 03:30:11;;;;;;;3.55;2.40;;;;;;;17.84;93.27;100527.38;4927184;29;20034;-88
2022/06/24 03:32:41;;;;;;;3.85;2.05;;;;;;;17.84;92.72;100522.00;4887159;29;20051;-86
2022/06/24 03:35:08;;;;;;;4.07;2.15;;;;;;;17.89;92.42;100520.88;4915337;29;20086;-88
2022/06/24 03:37:35;;;;;;;4.60;2.40;;;;;;;17.89;93.03;100510.19;4948012;29;20452;-88
2022/06/24 03:40:01;;;;;;;4.88;2.42;;;;;;;17.90;92.53;100506.53;4923782;29;20039;-88
2022/06/24 03:42:27;;;;;;;3.20;2.20;;;;;;;17.85;92.09;100506.78;4926902;29;20027;-87
2022/06/24 03:44:53;;;;;;;3.42;2.33;;;;;;;17.87;93.70;100509.41;4934595;29;20031;-88
2022/06/24 03:47:19;;;;;;;3.05;2.17;;;;;;;17.82;92.36;100502.47;4944365;29;20118;-88
2022/06/24 03:49:44;;;;;;;3.88;2.22;;;;;;;17.81;91.63;100522.19;4917116;29;20603;-89
2022/06/24 03:52:10;;;;;;;5.95;2.60;;;;;;;17.76;93.75;100507.31;4937433;29;20356;-89
2022/06/24 03:54:37;;;;;;;6.47;2.80;;;;;;;17.82;94.13;100513.19;4908770;29;20368;-89
2022/06/24 03:57:03;;;;;;;4.20;2.55;;;;;;;17.83;92.80;100520.28;4908632;29;20094;-89
2022/06/24 03:59:28;;;;;;;4.38;2.80;;;;;;;17.88;93.32;100529.84;4918524;29;20489;-89
2022/06/24 04:01:54;;;;;;;3.53;2.50;;;;;;;17.89;93.74;100528.94;4900242;29;20118;-89
2022/06/24 04:04:19;;;;;;;4.60;2.88;;;;;;;17.83;92.81;100520.28;4911001;29;20065;-89
2022/06/24 04:06:45;;;;;;;4.30;2.60;;;;;;;17.90;91.58;100530.63;4907849;29;20027;-89
2022/06/24 04:09:11;;;;;;;5.78;2.78;;;;;;;17.82;91.60;100531.09;4905251;28;20495;-89
2022/06/24 04:11:37;;;;;;;3.22;2.53;;;;;;;17.85;90.71;100549.66;4920947;29;20038;-89
2022/06/24 04:14:03;;;;;;;4.47;3.00;;;;;;;17.83;91.43;100552.44;4890780;29;20043;-89
2022/06/24 04:16:29;;;;;;;4.43;3.08;;;;;;;17.89;92.10;100561.06;4901902;29;20035;-89
2022/06/24 04:18:54;;;;;;;5.55;3.00;;;;;;;17.90;91.63;100563.63;4946970;28;20059;-89
2022/06/24 04:21:21;;;;;;;4.55;3.08;;;;;;;17.84;91.45;100556.81;4936399;29;20435;-90
2022/06/24 04:23:49;;;;;;;4.85;3.03;;;;;;;17.92;91.72;100572.47;4934028;28;20036;-90
2022/06/24 04:26:15;;;;;;;7.90;3.42;;;;;;;17.91;91.01;100575.25;4929332;29;20028;-89
2022/06/24 04:28:41;;;;;;;5.53;3.30;;;;;;;17.89;91.41;100569.09;4929144;29;20040;-89
2022/06/24 04:31:07;;;;;;;4.95;3.17;;;;;;;17.89;90.01;100561.06;4919869;29;20032;-89
2022/06/24 04:33:32;;;;;;;6.30;3.30;;;;;;;17.95;92.50;100568.75;4920424;29;20511;-89
2022/06/24 04:35:58;;;;;;;5.57;3.30;;;;;;;17.97;91.54;100572.19;4903854;29;20047;-89
2022/06/24 04:38:24;;;;;;;4.68;3.38;;;;;;;17.87;92.03;100561.16;4905080;28;20508;-90
2022/06/24 04:40:49;;;;;;;4.85;3.17;;;;;;;17.93;92.09;100576.03;4920640;29;20472;-90
2022/06/24 04:43:15;;;;;;;6.65;3.17;;;;;;;17.88;92.31;100562.88;4933885;29;20137;-90
2022/06/24 04:45:43;;;;;;;4.22;3.05;;;;;;;17.92;92.15;100567.09;4904694;29;20082;-89
2022/06/24 04:48:09;;;;;;;8.50;3.78;;;;;;;17.93;92.00;100565.31;4918918;29;20032;-89
2022/06/24 04:50:35;;;;;;;6.90;3.55;;;;;;;17.98;93.19;100571.28;4921393;29;20045;-89
2022/06/24 04:53:00;;;;;;;6.15;3.33;;;;;;;17.90;92.94;100563.63;4914697;28;20518;-89
2022/06/24 04:55:26;;;;;;;6.07;3.50;;;;;;;17.90;92.97;100550.25;4904819;29;20474;-89
2022/06/24 04:57:51;;;;;;;5.93;3.63;;;;;;;18.01;94.00;100561.22;4917253;29;20511;-89
2022/06/24 05:00:17;;;;;;;6.70;3.67;;;;;;;17.99;92.29;100556.91;4918128;29;20486;-89
2022/06/24 05:02:43;;;;;;;5.75;3.65;;;;;;;18.03;91.91;100569.19;4936029;29;20507;-89
2022/06/24 05:05:09;;;;;;;5.50;3.80;;;;;;;18.01;94.46;100563.91;4920351;29;20027;-89
2022/06/24 05:07:36;;;;;;;8.15;4.22;;;;;;;18.01;93.78;100571.94;4928307;29;20070;-90
2022/06/24 05:10:02;;;;;;;4.85;3.97;;;;;;;17.99;94.82;100552.41;4914640;29;20031;-89
2022/06/24 05:12:28;;;;;;;10.07;4.85;;;;;;;17.95;94.25;100548.19;4923013;29;20031;-89
2022/06/24 05:14:53;;;;;;;6.05;4.40;;;;;;;18.06;94.55;100569.00;4904454;29;20262;-89
2022/06/24 05:17:19;;;;;;;6.35;4.45;;;;;;;18.02;94.04;100554.06;4925030;29;20036;-89
2022/06/24 05:19:45;;;;;;;8.73;4.65;;;;;;;18.02;94.88;100559.41;4907419;29;20047;-89
2022/06/24 05:22:10;;;;;;;6.88;4.72;;;;;;;17.98;95.13;100553.38;4914981;28;20035;-89
2022/06/24 05:24:36;;;;;;;8.85;4.65;;;;;;;18.00;95.33;100563.97;4936561;28;20067;-88
2022/06/24 05:27:02;;;;;;;10.07;4.53;;;;;;;18.01;95.53;100560.38;4928321;29;20040;-89
2022/06/24 05:29:28;;;;;;;11.38;4.82;;;;;;;18.01;96.19;100552.34;4910610;29;20031;-89
2022/06/24 05:31:53;;;;;;;5.60;4.13;;;;;;;18.09;95.60;100554.56;4904650;29;20072;-88
2022/06/24 05:34:19;;;;;;;6.53;4.03;;;;;;;18.04;94.55;100554.81;4904060;29;20052;-88
2022/06/24 05:36:45;;;;;;;7.40;4.93;;;;;;;18.13;96.04;100561.50;4953145;29;20054;-89
2022/06/24 05:39:11;;;;;;;8.70;4.50;;;;;;;18.07;96.01;100561.81;4911717;29;20016;-89
2022/06/24 05:41:39;;;;;;;7.72;4.88;;;;;;;18.05;96.64;100559.22;4927254;29;20484;-89
2022/06/24 05:44:05;;;;;;;6.97;5.20;;;;;;;18.07;95.79;100565.38;4921382;29;20035;-88
2022/06/24 05:46:31;;;;;;;10.48;5.30;;;;;;;18.00;97.57;100559.50;4923681;29;20460;-89
2022/06/24 05:48:57;;;;;;;8.75;4.85;;;;;;;18.02;94.07;100562.94;4904627;29;20114;-88
2022/06/24 05:51:23;;;;;;;12.85;4.78;;;;;;;18.07;94.56;100573.41;4936087;29;20448;-89
2022/06/24 05:56:33;;;;;;;8.68;5.13;;;;;;;18.02;92.95;100562.09;4939027;29;20035;-88
2022/06/24 05:58:59;;;;;;;8.75;5.65;;;;;;;17.99;96.06;100571.16;4938952;29;20456;-89
2022/06/24 06:01:26;;;;;;;8.00;5.32;;;;;;;18.00;95.93;100588.09;4938867;29;20137;-89
2022/06/24 06:03:52;;;;;;;8.00;5.60;;;;;;;18.02;96.31;100596.91;4922741;29;20031;-89
2022/06/24 06:06:18;;;;;;;7.57;5.60;;;;;;;18.02;94.77;100587.06;4938740;29;20036;-88
2022/06/24 06:08:43;;;;;;;11.20;6.60;;;;;;;18.03;95.87;100579.91;4922778;29;20050;-89
2022/06/24 06:11:11;;;;;;;9.98;6.93;;;;;;;18.08;96.22;100588.53;4935839;29;20024;-89
2022/06/24 06:13:38;;;;;;;10.68;6.55;;;;;;;18.10;96.13;100583.97;4931749;29;20094;-88
2022/06/24 06:16:04;;;;;;;8.60;6.40;;;;;;;18.10;97.27;100573.25;4919757;29;20488;-89
2022/06/24 06:18:29;;;;;;;9.70;6.35;;;;;;;18.10;96.31;100575.94;4917343;28;20134;-89
2022/06/24 06:21:00;;;;;;;10.50;6.80;;;;;;;18.17;97.71;100589.81;4920417;29;20400;-88
2022/06/24 06:23:26;;;;;;;9.13;6.38;;;;;;;18.21;97.45;100589.56;4912786;29;20451;-89
2022/06/24 06:25:51;;;;;;;15.02;7.40;;;;;;;18.24;98.29;100589.38;4938659;29;20472;-89
2022/06/24 06:28:17;;;;;;;9.55;6.85;;;;;;;18.25;97.58;100587.59;4906020;29;20131;-88
2022/06/24 06:30:42;;;;;;;13.60;7.15;;;;;;;18.28;98.34;100584.72;4906860;29;20046;-89
2022/06/24 06:33:08;;;;;;;11.27;7.63;;;;;;;18.30;96.93;100589.97;4906930;28;20134;-89
2022/06/24 06:35:33;;;;;;;10.02;7.68;;;;;;;18.25;95.60;100590.25;4938552;29;20105;-87
2022/06/24 06:37:59;;;;;;;10.70;6.93;;;;;;;18.29;96.92;100597.16;4934635;28;20384;-87
2022/06/24 06:40:24;;;;;;;11.23;7.60;;;;;;;18.31;97.78;100597.06;4916362;29;20042;-88
2022/06/24 06:42:53;;;;;;;12.10;8.15;;;;;;;18.37;96.15;100599.38;4915215;29;20039;-89
2022/06/24 06:45:19;;;;;;;12.88;7.70;;;;;;;18.34;96.85;100583.50;4918020;29;20506;-87
2022/06/24 06:47:45;;;;;;;12.25;7.97;;;;;;;18.48;98.76;100605.84;4919255;29;20319;-87
2022/06/24 06:50:10;;;;;;;11.80;9.30;;;;;;;18.50;97.79;100615.66;4904309;29;20024;-88
2022/06/24 06:52:36;;;;;;;10.18;8.80;;;;;;;18.50;98.14;100610.28;4935070;29;20086;-87
2022/06/24 06:55:02;;;;;;;11.98;8.95;;;;;;;18.48;98.59;100608.53;4918562;29;20034;-87
2022/06/24 06:57:27;;;;;;;13.35;9.52;;;;;;;18.52;98.26;100603.88;4934162;29;20031;-88
2022/06/24 06:59:53;;;;;;;13.35;9.15;;;;;;;18.54;98.84;100601.94;4917679;29;20035;-88
2022/06/24 07:02:18;;;;;;;16.65;10.05;;;;;;;18.55;99.06;100594.78;4903672;28;20053;-87
2022/06/24 07:04:44;;;;;;;15.25;10.05;;;;;;;18.60;99.86;100595.38;4903099;29;20277;-87
2022/06/24 07:07:09;;;;;;;12.77;10.38;;;;;;;18.56;100.00;100580.41;4901251;29;20051;-87
2022/06/24 07:09:35;;;;;;;13.27;9.77;;;;;;;18.66;99.97;100584.25;4918829;29;20038;-88
2022/06/24 07:12:00;;;;;;;13.40;10.07;;;;;;;18.73;100.00;100585.63;4917465;29;20098;-88
2022/06/24 07:14:26;;;;;;;14.15;10.40;;;;;;;18.79;100.00;100595.16;4918525;29;20054;-88
2022/06/24 07:16:51;;;;;;;16.15;10.55;;;;;;;18.79;99.50;100590.69;4916402;28;20074;-88
2022/06/24 07:19:17;;;;;;;13.00;9.23;;;;;;;18.84;99.47;100593.06;4915412;29;20035;-87
2022/06/24 07:21:42;;;;;;;13.55;9.45;;;;;;;18.87;99.20;100599.13;4916877;29;20039;-87
2022/06/24 07:24:08;;;;;;;15.48;9.77;;;;;;;18.89;98.75;100589.16;4917830;29;20054;-88
2022/06/24 07:26:33;;;;;;;13.45;9.20;;;;;;;18.93;97.95;100589.81;4916680;29;20043;-87
2022/06/24 07:28:59;;;;;;;13.02;9.82;;;;;;;18.97;98.37;100580.66;4916991;29;20031;-88
2022/06/24 07:31:24;;;;;;;14.80;10.18;;;;;;;19.10;100.00;100578.06;4913675;28;20047;-88
2022/06/24 07:33:50;;;;;;;13.80;10.63;;;;;;;19.11;100.00;100569.03;4933100;28;20055;-88
2022/06/24 07:36:15;;;;;;;14.32;10.50;;;;;;;19.16;100.00;100572.31;4917971;29;20039;-89
2022/06/24 07:38:41;;;;;;;11.93;9.85;;;;;;;19.07;97.61;100554.97;4901268;29;20126;-88
2022/06/24 07:41:08;;;;;;;12.50;9.10;;;;;;;19.07;97.08;100551.44;4918085;29;20098;-88
2022/06/24 07:43:36;;;;;;;12.98;10.13;;;;;;;19.07;98.57;100562.16;4930092;29;20034;-89
2022/06/24 07:46:02;;;;;;;14.02;10.73;;;;;;;19.14;100.00;100574.25;4919220;28;20051;-88
2022/06/24 07:48:27;;;;;;;16.52;10.77;;;;;;;19.09;99.58;100576.34;4944485;29;20042;-89
2022/06/24 07:50:55;;;;;;;12.00;9.45;;;;;;;19.13;97.43;100584.09;4944966;28;20043;-87
2022/06/24 07:53:20;;;;;;;13.40;9.25;;;;;;;19.17;97.61;100591.97;4922012;29;20500;-87
2022/06/24 07:58:30;;;;;;;13.73;9.75;;;;;;;19.11;96.26;100599.44;4947384;28;20066;-87
2022/06/24 08:00:56;;;;;;;12.10;8.80;;;;;;;19.12;96.40;100603.00;4901585;29;20121;-87
2022/06/24 08:03:21;;;;;;;13.70;9.10;;;;;;;19.06;96.78;100608.72;4932610;28;20041;-87
2022/06/24 08:05:47;;;;;;;12.98;9.25;;;;;;;18.96;97.10;100591.47;4884936;29;20118;-86
2022/06/24 08:08:12;;;;;;;10.27;8.60;;;;;;;18.94;95.60;100602.31;4914862;29;20039;-86
2022/06/24 08:10:38;;;;;;;14.98;9.70;;;;;;;18.96;95.33;100613.78;4915049;29;20051;-87
2022/06/24 08:13:03;;;;;;;11.25;9.63;;;;;;;18.95;97.63;100603.16;4917096;29;20497;-87
2022/06/24 08:15:29;;;;;;;15.93;9.65;;;;;;;18.95;97.03;100603.16;4916195;28;20031;-87
2022/06/24 08:17:54;;;;;;;12.98;9.60;;;;;;;18.88;96.86;100595.47;4916587;29;20062;-87
2022/06/24 08:20:20;;;;;;;11.63;9.70;;;;;;;18.93;98.36;100594.34;4914594;29;20459;-87
2022/06/24 08:22:46;;;;;;;10.95;8.55;;;;;;;18.90;96.86;100598.94;4918045;29;20035;-87
2022/06/24 08:25:11;;;;;;;14.98;9.75;;;;;;;19.00;95.14;100601.06;4926919;28;20175;-87
2022/06/24 08:27:37;;;;;;;16.52;10.85;;;;;;;19.15;97.74;100604.63;4931114;29;20510;-87
2022/06/24 08:30:03;;;;;;;15.98;12.27;;;;;;;19.15;98.78;100608.16;4917870;29;20039;-87
2022/06/24 08:32:29;;;;;;;14.45;11.68;;;;;;;19.06;96.44;100601.53;4930295;29;20396;-87
2022/06/24 08:34:56;;;;;;;17.20;12.93;;;;;;;19.06;96.11;100592.63;4915462;29;20584;-87
2022/06/24 08:37:21;;;;;;;16.95;13.48;;;;;;;19.05;95.98;100598.97;4932908;29;20463;-87
2022/06/24 08:39:47;;;;;;;17.42;12.48;;;;;;;19.13;96.79;100594.81;4917390;29;20113;-87
2022/06/24 08:42:13;;;;;;;18.00;13.43;;;;;;;19.12;95.92;100589.56;4916421;28;20130;-87
2022/06/24 08:44:41;;;;;;;19.90;15.48;;;;;;;19.25;94.78;100598.59;4917106;29;20039;-88
2022/06/24 08:47:13;;;;;;;22.45;16.13;;;;;;;19.32;94.93;100596.41;4914084;29;20566;-87
2022/06/24 08:49:38;;;;;;;19.35;17.15;;;;;;;19.40;93.80;100594.09;4931567;29;20471;-88
2022/06/24 08:52:08;;;;;;;22.88;17.13;;;;;;;19.54;96.20;100602.13;4899303;29;20030;-87
2022/06/24 08:54:36;;;;;;;18.30;15.43;;;;;;;19.58;93.54;100585.81;4931034;28;20062;-87
2022/06/24 08:57:02;;;;;;;18.02;14.68;;;;;;;19.65;92.10;100587.16;4914542;29;20051;-87
2022/06/24 08:59:28;;;;;;;22.50;16.27;;;;;;;19.80;92.56;100593.41;4931863;28;20050;-87
2022/06/24 09:01:54;;;;;;;18.30;15.57;;;;;;;19.94;93.02;100593.38;4917567;29;20039;-87
2022/06/24 09:04:25;;;;;;;20.80;14.90;;;;;;;19.93;91.52;100576.41;4917336;29;20105;-87
2022/06/24 09:06:51;;;;;;;18.33;15.40;;;;;;;20.09;89.71;100591.53;4918411;28;20134;-87
2022/06/24 09:09:26;;;;;;;16.52;13.65;;;;;;;20.19;90.53;100581.88;4950450;28;20027;-88
2022/06/24 09:11:55;;;;;;;14.20;12.13;;;;;;;20.37;90.56;100588.72;4935037;28;20039;-87
2022/06/24 09:14:20;;;;;;;15.20;12.38;;;;;;;20.41;90.02;100573.25;4935661;29;20031;-87
2022/06/24 09:16:46;;;;;;;13.85;12.43;;;;;;;20.49;89.20;100576.28;4940000;29;20035;-87
2022/06/24 09:19:15;;;;;;;13.75;12.05;;;;;;;20.62;90.20;100587.09;4949648;28;20027;-87
2022/06/24 13:51:18;;;;;;;2.45;1.90;;;;;;;24.79;58.26;100562.38;5500494;24;19928;-87
2022/06/24 13:53:44;;;;;;;3.92;1.70;;;;;;;24.95;57.90;100570.06;5256860;24;20067;-87
2022/06/24 13:58:59;;;;;;;3.78;2.17;;;;;;;24.97;55.83;100572.63;4917499;24;20110;-92
2022/06/24 14:01:24;;;;;;;3.17;1.80;;;;;;;24.85;56.76;100567.28;4756394;30;20107;-91
2022/06/24 14:03:50;;;;;;;4.43;1.80;;;;;;;25.05;56.60;100549.31;4741828;30;20032;-89
2022/06/24 14:06:17;;;;;;;4.00;2.15;;;;;;;25.03;55.61;100554.00;4741800;30;20511;-90
2022/06/24 14:08:44;;;;;;;2.97;2.15;;;;;;;25.21;57.04;100556.13;4742326;30;20128;-91
2022/06/24 14:11:10;;;;;;;3.20;2.03;;;;;;;25.15;57.17;100557.50;4741263;30;20071;-90
2022/06/24 14:13:36;;;;;;;3.00;2.10;;;;;;;25.17;57.26;100555.50;4756474;30;20532;-90
2022/06/24 14:16:02;;;;;;;4.00;1.92;;;;;;;25.39;56.83;100559.91;4739784;30;20075;-93
2022/06/24 14:18:28;;;;;;;3.75;2.28;;;;;;;25.48;54.91;100552.81;4756045;30;20054;-90
2022/06/24 14:20:53;;;;;;;3.63;2.10;;;;;;;25.70;56.59;100565.31;4744446;30;20454;-89
2022/06/24 14:26:03;;;;;;;1.95;1.52;;;;;;;26.12;54.40;100551.56;4731222;30;20420;-91
2022/06/24 14:28:29;;;;;;;2.72;1.63;;;;;;;26.22;53.19;100552.44;4741230;30;20032;-90
2022/06/24 14:30:54;;;;;;;3.15;2.10;;;;;;;26.15;53.62;100560.28;4741118;30;20119;-90
2022/06/24 14:33:20;;;;;;;2.60;1.60;;;;;;;26.12;55.81;100566.00;4738136;30;20032;-89
2022/06/24 14:35:45;;;;;;;2.28;1.70;;;;;;;26.51;55.39;100560.59;4731494;30;20040;-92
2022/06/24 14:40:55;;;;;;;2.90;1.52;;;;;;;26.88;51.71;100559.00;4758272;30;20048;-90
2022/06/24 14:43:21;;;;;;;1.58;1.25;;;;;;;27.41;57.08;100586.50;4737327;30;20024;-90
2022/06/24 14:45:48;;;;;;;4.63;1.45;;;;;;;27.48;53.01;100566.88;4728128;30;20044;-88
2022/06/24 14:48:14;;;;;;;2.45;1.42;;;;;;;27.50;51.48;100579.31;4720909;30;20035;-89
2022/06/24 14:50:40;;;;;;;2.17;1.30;;;;;;;27.36;47.59;100574.34;4740132;30;20410;-92
2022/06/24 14:53:05;;;;;;;2.15;1.40;;;;;;;27.45;48.26;100577.03;4740549;30;20031;-89
2022/06/24 14:55:31;;;;;;;2.30;1.20;;;;;;;27.98;52.28;100561.03;4748754;30;20044;-89
2022/06/24 14:57:57;;;;;;;5.00;1.35;;;;;;;27.53;45.94;100570.84;4711625;30;20060;-89
2022/06/24 15:00:26;;;;;;;3.38;1.10;;;;;;;27.24;50.63;100570.94;4744191;30;20078;-88
2022/06/24 15:02:55;;;;;;;2.72;1.25;;;;;;;27.22;48.20;100556.66;4735560;30;20040;-91
2022/06/24 15:05:20;;;;;;;3.72;1.10;;;;;;;27.09;45.63;100561.53;4740817;30;20039;-93
2022/06/24 15:07:46;;;;;;;1.30;1.20;;;;;;;27.15;48.21;100556.38;4726189;30;20036;-90
2022/06/24 15:10:13;;;;;;;2.35;1.00;;;;;;;27.51;47.74;100531.22;4730163;30;20048;-92
2022/06/24 15:12:39;;;;;;;3.63;1.10;;;;;;;27.90;48.13;100522.84;4753172;30;20472;-91
2022/06/24 15:15:07;;;;;;;4.10;1.40;;;;;;;28.64;48.48;100516.25;4739331;30;20075;-89
2022/06/24 15:17:33;;;;;;;3.13;0.93;;;;;;;28.78;46.12;100504.75;4737310;30;20028;-90
2022/06/24 15:19:59;;;;;;;4.22;0.95;;;;;;;28.70;44.97;100507.44;4734218;30;20074;-89
2022/06/24 15:22:25;;;;;;;0.73;0.68;;;;;;;28.93;47.29;100502.28;4737582;30;20514;-90
2022/06/24 15:24:53;;;;;;;2.35;0.88;;;;;;;29.23;46.96;100508.28;4745120;30;20058;-89
2022/06/24 15:27:19;;;;;;;0.50;0.43;;;;;;;29.21;45.75;100513.06;4777015;30;20036;-89
2022/06/24 15:29:45;;;;;;;1.75;1.10;;;;;;;28.75;42.57;100510.53;4737770;30;20040;-90
2022/06/24 15:32:11;;;;;;;2.58;1.00;;;;;;;28.76;43.58;100504.06;4754411;30;20028;-90
2022/06/24 15:34:37;;;;;;;2.60;0.80;;;;;;;28.79;44.51;100506.47;4754558;30;20544;-89
2022/06/24 15:37:04;;;;;;;2.13;0.60;;;;;;;28.73;42.45;100510.69;4747764;30;20036;-91
2022/06/24 15:39:29;;;;;;;2.38;0.98;;;;;;;28.78;44.35;100512.91;4749869;30;20148;-89
2022/06/24 15:41:55;;;;;;;1.38;0.70;;;;;;;29.06;44.79;100513.66;4739672;30;20051;-90
2022/06/24 15:44:21;;;;;;;3.15;0.93;;;;;;;29.24;46.22;100505.41;4723867;30;20047;-89
2022/06/24 15:46:46;;;;;;;0.95;0.70;;;;;;;29.23;41.23;100509.16;4741776;30;20031;-90
2022/06/24 15:49:12;;;;;;;0.88;0.75;;;;;;;28.91;40.00;100507.91;4739871;30;20518;-89
2022/06/24 15:51:38;;;;;;;1.17;0.88;;;;;;;28.52;40.74;100505.59;4739603;30;20043;-89
2022/06/24 15:54:03;;;;;;;4.90;0.90;;;;;;;28.61;44.02;100498.34;4754541;30;20450;-88
2022/06/24 15:56:29;;;;;;;2.50;0.88;;;;;;;28.70;41.52;100496.53;4746384;30;20171;-87
2022/06/24 15:58:55;;;;;;;1.25;0.80;;;;;;;29.04;42.16;100502.03;4742405;30;20427;-90
2022/06/24 16:01:21;;;;;;;1.05;0.73;;;;;;;28.83;41.02;100494.25;4754166;30;20040;-90
2022/06/24 16:03:47;;;;;;;2.17;1.20;;;;;;;29.26;40.61;100500.66;4739770;30;20049;-88